Airfield :
LOGIN :

Register | Disclaimer

   EN    FR    IT 

 










Legend :    VFR   Marginal VFR   IFR   Intensive IFR   Very Intensive IFR
Visi :
Ceiling :
>= 8 km
>= 3000ft
5 to 8 km
1000 to 3000 ft
1500m to 5 km
500 to 1000 ft
800 to 1500m
200 to 500 ft
< 800m
< 200 ft
Symbols :   Thunderstorms  Fog  Heavy snow  Heavy precipitations  Wind > 20 kt
SIGMETs :     Misc.  Thunderstorms  Icing  Turbulence  Mountain Waves  Volcanic Ashes







- Airport Elevation : 505 ft
- IATA code : SXB
- Download approach charts


LFST - Strasbourg

CURRENT METAR :
  • 211430Z AUTO 10003KT 070V170 9999 ///CB 22/18 Q1013 NOSIG

EXPIRED METARs :
  • 211400Z AUTO VRB03KT 9999 FEW011/// SCT076/// BKN100/// ///TCU 22/19 Q1013 TEMPO FEW035CB
  • 211330Z AUTO VRB02KT 9999 -RA FEW013 SCT033 BKN110 22/18 Q1013 TEMPO FEW035CB
  • 211300Z AUTO VRB02KT 9999 FEW012/// SCT049/// BKN098/// ///TCU 22/19 Q1013 TEMPO FEW035CB
  • 211230Z AUTO 36003KT 330V030 9999 FEW015/// SCT047/// OVC098/// ///CB 21/19 Q1013 NOSIG
  • 211200Z AUTO 02004KT 9999 FEW005/// SCT048/// BKN060/// ///CB 20/19 Q1013 NOSIG

TAF AMD TAF LFST
Valid from the 21 at 12:00 until the 22 at 12:00 UTC


211229Z 2112/2212 20008KT 9999 FEW020 BKN050 BKN100
TEMPO 2112/2121 -SHRA FEW035CB
PROB30
TEMPO 2201/2207 1500 BCFG
BECMG 2208/2211 FEW030CB BKN043
PROB40
TEMPO 2209/2212 4500 SHRA
No reported NOTAMs for that airfield.



MET'MAP, your aeronautical weather chart ! - Copyright ORBIFLY December 2007 - Disclaimer

ORBIFLY MET'MAP TEAM :

Programming & Development : Alexandra Zaïnal
Concept & Development : Baudouin d'Aumeries
Co-Development & Prog : Marc-Olivier Méhu
Technical & hardware support : Manuel Goepfert

Contact : metmap@orbifly.com




SOURCES & CREDITS :

   NOAA